Time;durP1;ratioP1;P1;durP2;ratioP2;P2;SDS_P1;SDS_P2;PMS_P1;PMS_P2;Temp;Humidity;BMP_temperature;BMP_pressure;BME280_temperature;BME280_humidity;BME280_pressure;Samples;Min_cycle;Max_cycle;Signal;HPM_P1;HPM_P2
2021/12/27 00:01:48;;;;;;;36.47;25.73;;;;;;;1.69;94.51;100204.94;5003721;28;20029;-69
2021/12/27 00:04:14;;;;;;;33.80;26.95;;;;;;;1.71;95.21;100210.78;5006911;28;20030;-69
2021/12/27 00:06:39;;;;;;;32.78;25.75;;;;;;;1.71;94.88;100213.34;4993968;28;20116;-68
2021/12/27 00:09:04;;;;;;;36.28;26.88;;;;;;;1.71;95.12;100213.34;5003266;28;20141;-68
2021/12/27 00:11:30;;;;;;;36.05;26.95;;;;;;;1.75;95.30;100204.59;4996622;28;20361;-68
2021/12/27 00:13:55;;;;;;;37.38;27.88;;;;;;;1.73;95.29;100206.44;4991712;28;20081;-70
2021/12/27 00:16:20;;;;;;;35.95;27.15;;;;;;;1.74;95.52;100197.84;4998512;28;20042;-68
2021/12/27 00:18:46;;;;;;;38.10;27.92;;;;;;;1.75;95.44;100204.59;5001793;28;20049;-68
2021/12/27 00:21:12;;;;;;;37.72;26.55;;;;;;;1.72;95.55;100202.19;4999186;28;20030;-68
2021/12/27 00:23:37;;;;;;;41.38;29.40;;;;;;;1.74;95.35;100202.97;5001269;28;20474;-68
2021/12/27 00:26:03;;;;;;;37.38;27.25;;;;;;;1.78;95.36;100199.34;5010980;28;20042;-68
2021/12/27 00:28:30;;;;;;;35.65;26.67;;;;;;;1.76;95.23;100196.03;5000897;28;20050;-68
2021/12/27 00:30:56;;;;;;;39.17;26.65;;;;;;;1.77;95.80;100187.44;5003247;28;20041;-68
2021/12/27 00:33:21;;;;;;;37.75;27.90;;;;;;;1.79;95.55;100195.88;4972835;28;20026;-67
2021/12/27 00:35:48;;;;;;;38.20;28.02;;;;;;;1.78;95.45;100194.22;5000866;28;20049;-67
2021/12/27 00:38:14;;;;;;;36.97;27.33;;;;;;;1.77;95.38;100178.03;5003596;28;20462;-67
2021/12/27 00:40:39;;;;;;;36.80;27.08;;;;;;;1.82;96.08;100195.69;5006711;28;20029;-68
2021/12/27 00:43:05;;;;;;;42.28;27.75;;;;;;;1.80;96.04;100184.72;5000118;28;20490;-66
2021/12/27 00:45:31;;;;;;;34.97;26.60;;;;;;;1.76;96.20;100171.28;5010499;28;20034;-67
2021/12/27 00:47:56;;;;;;;35.75;26.55;;;;;;;1.81;95.54;100178.69;5000657;28;20034;-67
2021/12/27 00:50:22;;;;;;;35.35;27.08;;;;;;;1.82;95.98;100175.22;5008241;28;20599;-68
2021/12/27 00:52:49;;;;;;;34.78;27.20;;;;;;;1.83;95.92;100176.88;4995668;28;20054;-68
2021/12/27 00:55:17;;;;;;;35.50;26.48;;;;;;;1.84;95.56;100163.19;4990863;28;20068;-67
2021/12/27 00:57:43;;;;;;;34.83;25.23;;;;;;;1.84;95.84;100152.97;5009038;28;20508;-68
2021/12/27 01:00:11;;;;;;;33.67;25.90;;;;;;;1.87;95.55;100157.91;5012548;28;20030;-67
2021/12/27 01:02:37;;;;;;;35.80;27.10;;;;;;;1.84;96.07;100147.84;5000545;28;20034;-68
2021/12/27 01:05:03;;;;;;;39.00;27.85;;;;;;;1.85;96.09;100149.50;5003744;28;20025;-67
2021/12/27 01:07:29;;;;;;;36.05;27.15;;;;;;;1.90;96.29;100156.91;5011700;28;20450;-67
2021/12/27 01:10:06;;;;;;;36.75;26.83;;;;;;;1.91;95.76;100151.72;5006943;28;20041;-69
2021/12/27 01:12:48;;;;;;;34.03;25.60;;;;;;;1.91;96.00;100154.25;4996791;28;20040;-67
2021/12/27 01:17:46;;;;;;;35.22;26.05;;;;;;;1.90;96.38;100152.63;4997432;28;20042;-67
2021/12/27 01:20:15;;;;;;;32.83;25.63;;;;;;;1.93;96.31;100151.63;4997230;28;20084;-67
2021/12/27 01:22:41;;;;;;;34.85;26.33;;;;;;;1.92;96.41;100161.03;5001188;28;20441;-68
2021/12/27 01:25:07;;;;;;;32.47;24.73;;;;;;;1.92;96.38;100155.91;4999004;28;20513;-67
2021/12/27 01:27:33;;;;;;;33.88;26.88;;;;;;;1.92;96.17;100150.78;4992415;28;20462;-68
2021/12/27 01:29:59;;;;;;;34.63;27.30;;;;;;;1.98;96.65;100160.69;4993177;28;20036;-67
2021/12/27 01:32:28;;;;;;;35.92;27.00;;;;;;;2.00;96.33;100153.72;4992775;28;20038;-67
2021/12/27 01:34:54;;;;;;;37.10;26.92;;;;;;;2.02;96.75;100141.69;4994234;28;20025;-67
2021/12/27 01:37:19;;;;;;;35.80;26.70;;;;;;;2.02;96.71;100141.69;5010402;28;20030;-67
2021/12/27 01:39:45;;;;;;;35.80;26.85;;;;;;;2.05;96.39;100140.69;5001225;28;20477;-67
2021/12/27 01:42:11;;;;;;;34.72;26.00;;;;;;;2.03;96.35;100143.34;4987914;28;20052;-67
2021/12/27 01:44:37;;;;;;;36.53;27.38;;;;;;;2.06;96.26;100142.31;5003431;28;20034;-67
2021/12/27 01:47:02;;;;;;;33.75;25.23;;;;;;;2.06;97.19;100137.22;4992794;28;20117;-69
2021/12/27 01:49:28;;;;;;;33.45;25.23;;;;;;;2.05;97.06;100135.56;5002026;28;20041;-67
2021/12/27 01:51:53;;;;;;;32.55;25.58;;;;;;;2.03;96.71;100128.00;5009543;28;20030;-67
2021/12/27 01:54:19;;;;;;;33.00;24.58;;;;;;;2.03;96.41;100135.66;4975137;28;20108;-67
2021/12/27 01:56:45;;;;;;;32.25;25.30;;;;;;;2.03;96.19;100138.22;4978466;28;20409;-67
2021/12/27 01:59:10;;;;;;;32.00;24.65;;;;;;;2.03;96.59;100137.41;4999141;28;20113;-67
2021/12/27 02:01:36;;;;;;;32.20;24.83;;;;;;;2.02;96.47;100141.69;5007299;28;20033;-67
2021/12/27 02:04:01;;;;;;;32.00;25.70;;;;;;;2.03;96.12;100137.41;4982470;28;20038;-68
2021/12/27 02:06:27;;;;;;;30.77;24.67;;;;;;;2.03;95.66;100135.66;4998082;28;20081;-67
2021/12/27 02:08:53;;;;;;;31.77;24.35;;;;;;;2.04;96.42;100139.88;5010052;28;20029;-67
2021/12/27 02:11:19;;;;;;;30.67;23.50;;;;;;;1.98;96.44;100122.31;5000490;28;20381;-67
2021/12/27 02:13:46;;;;;;;31.88;23.45;;;;;;;2.04;96.55;100121.97;4981990;28;20073;-67
2021/12/27 02:16:15;;;;;;;32.45;24.55;;;;;;;2.05;96.13;100126.16;4991276;28;20034;-67
2021/12/27 02:18:41;;;;;;;33.67;25.35;;;;;;;2.07;96.57;100124.34;4974574;28;20030;-67
2021/12/27 02:21:07;;;;;;;32.97;24.73;;;;;;;2.11;96.19;100120.69;4992027;28;20030;-67
2021/12/27 02:23:33;;;;;;;31.83;23.80;;;;;;;2.09;96.28;100122.53;4992186;28;20374;-67
2021/12/27 02:25:58;;;;;;;34.20;24.67;;;;;;;2.11;96.34;100125.81;4991506;28;20026;-67
2021/12/27 02:28:24;;;;;;;32.10;24.73;;;;;;;2.13;96.64;100124.00;4974091;28;20073;-69
2021/12/27 02:30:52;;;;;;;32.63;25.48;;;;;;;2.15;96.97;100125.66;4995807;28;20049;-67
2021/12/27 02:33:17;;;;;;;33.08;24.75;;;;;;;2.18;96.50;100125.44;4984790;28;20467;-67
2021/12/27 02:35:48;;;;;;;31.70;25.10;;;;;;;2.17;96.85;100124.63;4991753;28;20042;-67
2021/12/27 02:38:20;;;;;;;33.80;25.55;;;;;;;2.15;96.67;100120.53;4991141;28;20046;-67
2021/12/27 02:40:46;;;;;;;33.40;26.60;;;;;;;2.19;97.27;100124.56;4982143;28;20459;-67
2021/12/27 02:43:16;;;;;;;35.20;26.77;;;;;;;2.19;96.97;100124.56;4992411;28;20041;-67
2021/12/27 02:45:59;;;;;;;33.30;24.15;;;;;;;2.20;97.10;100126.19;5007171;28;20044;-67
2021/12/27 02:48:27;;;;;;;33.78;24.90;;;;;;;2.19;96.71;100119.44;5001212;28;20018;-67
2021/12/27 02:50:54;;;;;;;34.50;25.50;;;;;;;2.25;97.02;100124.19;4991550;28;20038;-67
2021/12/27 02:53:20;;;;;;;34.42;25.83;;;;;;;2.27;97.13;100114.69;4995365;28;20542;-67
2021/12/27 02:55:52;;;;;;;37.33;25.33;;;;;;;2.25;97.32;100116.53;5006682;28;20061;-67
2021/12/27 02:58:18;;;;;;;33.60;25.45;;;;;;;2.25;97.17;100114.78;5001083;28;20061;-66
2021/12/27 03:00:45;;;;;;;34.63;24.92;;;;;;;2.25;96.95;100109.66;4991447;28;20454;-67
2021/12/27 03:03:10;;;;;;;36.42;26.10;;;;;;;2.28;96.78;100106.09;4991411;28;20030;-66
2021/12/27 03:05:36;;;;;;;33.47;24.88;;;;;;;2.28;97.46;100106.09;4991522;28;20434;-67
2021/12/27 03:08:02;;;;;;;34.50;25.77;;;;;;;2.30;97.63;100096.63;4984036;28;20109;-67
2021/12/27 03:10:33;;;;;;;36.33;26.13;;;;;;;2.32;97.89;100102.44;4991523;28;20026;-67
2021/12/27 03:13:00;;;;;;;35.22;25.25;;;;;;;2.30;97.25;100104.28;4991104;28;20578;-67
2021/12/27 03:15:26;;;;;;;33.33;25.45;;;;;;;2.29;97.22;100097.50;4988223;28;20045;-67
2021/12/27 03:17:53;;;;;;;33.72;25.45;;;;;;;2.32;97.67;100100.72;4989545;28;20485;-67
2021/12/27 03:20:21;;;;;;;34.58;25.40;;;;;;;2.33;97.40;100093.84;4974860;28;20026;-67
2021/12/27 03:22:47;;;;;;;33.70;24.60;;;;;;;2.33;97.37;100088.75;4978280;28;20033;-67
2021/12/27 03:25:16;;;;;;;34.80;26.90;;;;;;;2.36;97.24;100088.56;4991443;28;20042;-67
2021/12/27 03:27:42;;;;;;;33.95;26.42;;;;;;;2.33;97.59;100088.75;4994136;28;20490;-67
2021/12/27 03:30:11;;;;;;;32.45;24.92;;;;;;;2.36;97.15;100089.41;5001872;28;20441;-67
2021/12/27 03:32:37;;;;;;;34.30;24.88;;;;;;;2.40;97.07;100095.13;4995717;28;20036;-67
2021/12/27 03:35:10;;;;;;;35.53;26.10;;;;;;;2.41;97.26;100096.81;4996704;28;20112;-67
2021/12/27 03:37:41;;;;;;;39.13;26.52;;;;;;;2.43;97.98;100091.59;4989787;28;20038;-68
2021/12/27 03:40:11;;;;;;;36.50;26.92;;;;;;;2.45;97.91;100087.19;4986119;28;20036;-67
2021/12/27 03:42:37;;;;;;;36.33;25.85;;;;;;;2.43;98.35;100084.72;4992423;28;20042;-66
2021/12/27 03:45:04;;;;;;;33.75;24.75;;;;;;;2.43;97.52;100084.72;4989967;28;20528;-67
2021/12/27 03:47:29;;;;;;;34.08;25.20;;;;;;;2.45;98.00;100082.06;4997690;28;20026;-67
2021/12/27 03:49:54;;;;;;;31.58;24.92;;;;;;;2.44;97.64;100086.38;4996735;28;20109;-67
2021/12/27 03:52:20;;;;;;;37.65;25.88;;;;;;;2.41;97.58;100076.34;5001180;28;20407;-66
2021/12/27 03:54:45;;;;;;;36.00;24.95;;;;;;;2.48;97.60;100082.72;4994875;28;20446;-67
2021/12/27 03:57:11;;;;;;;35.17;26.13;;;;;;;2.49;97.89;100063.88;4994517;28;20141;-67
2021/12/27 04:02:11;;;;;;;36.88;27.92;;;;;;;2.51;98.17;100062.03;4997431;28;20118;-67
2021/12/27 04:04:38;;;;;;;34.00;25.95;;;;;;;2.45;97.65;100057.28;4993490;28;20022;-67
2021/12/27 04:07:04;;;;;;;37.60;27.35;;;;;;;2.50;97.69;100055.28;4994530;28;20486;-67
2021/12/27 04:09:29;;;;;;;32.33;24.30;;;;;;;2.51;97.93;100051.81;4976050;28;20033;-67
2021/12/27 04:11:55;;;;;;;35.78;27.52;;;;;;;2.57;98.14;100056.56;4980504;28;20446;-67
2021/12/27 04:14:20;;;;;;;36.10;26.30;;;;;;;2.58;98.01;100055.66;4997206;28;20056;-67
2021/12/27 04:16:46;;;;;;;35.38;26.83;;;;;;;2.56;97.93;100049.78;4996472;28;20026;-67
2021/12/27 04:19:12;;;;;;;36.42;26.80;;;;;;;2.62;98.23;100049.41;5001261;28;20061;-67
2021/12/27 04:21:38;;;;;;;36.42;27.48;;;;;;;2.62;98.56;100044.28;5001303;28;20438;-67
2021/12/27 04:24:04;;;;;;;34.42;25.95;;;;;;;2.63;98.37;100040.00;4994493;28;20032;-66
2021/12/27 04:26:29;;;;;;;37.95;28.58;;;;;;;2.63;98.19;100035.69;4992422;28;20036;-66
2021/12/27 04:28:55;;;;;;;35.17;27.40;;;;;;;2.64;98.21;100037.38;5006335;28;20026;-67
2021/12/27 04:31:20;;;;;;;34.30;26.02;;;;;;;2.65;98.25;100039.00;4994065;28;20125;-67
2021/12/27 04:33:45;;;;;;;35.80;27.85;;;;;;;2.66;97.96;100040.66;4998569;28;20032;-66
2021/12/27 04:36:11;;;;;;;36.97;26.67;;;;;;;2.62;98.41;100034.06;4994213;28;20073;-66
2021/12/27 04:38:36;;;;;;;35.38;26.10;;;;;;;2.66;98.05;100025.28;4992067;28;20502;-67
2021/12/27 04:41:04;;;;;;;34.60;25.35;;;;;;;2.70;98.21;100025.09;4993590;28;20038;-66
2021/12/27 04:43:30;;;;;;;32.92;25.02;;;;;;;2.71;98.16;100027.56;5001296;28;20034;-66
2021/12/27 04:45:55;;;;;;;36.50;25.17;;;;;;;2.69;98.47;100023.44;4981343;28;20048;-66
2021/12/27 04:48:23;;;;;;;35.83;28.65;;;;;;;2.72;98.48;100018.97;4988087;28;20077;-66
2021/12/27 04:50:48;;;;;;;35.40;27.48;;;;;;;2.75;98.19;100012.81;4996887;28;20033;-66
2021/12/27 04:53:14;;;;;;;38.90;28.55;;;;;;;2.77;98.21;100026.38;4993617;28;20057;-67
2021/12/27 04:55:39;;;;;;;36.75;27.58;;;;;;;2.76;98.39;100014.47;4993678;28;20038;-67
2021/12/27 04:58:08;;;;;;;33.70;27.25;;;;;;;2.77;98.48;100021.25;4993797;28;20065;-66
2021/12/27 05:00:33;;;;;;;36.10;26.40;;;;;;;2.79;98.10;100024.53;4991758;28;20023;-67
2021/12/27 05:02:59;;;;;;;34.42;27.27;;;;;;;2.76;98.59;100019.59;4991028;28;20037;-67
2021/12/27 05:05:26;;;;;;;36.92;27.60;;;;;;;2.81;98.34;100015.84;4996379;28;20030;-67
2021/12/27 05:07:51;;;;;;;35.35;25.80;;;;;;;2.82;98.64;100019.22;5004561;28;20029;-67
2021/12/27 05:10:16;;;;;;;33.05;25.00;;;;;;;2.84;98.17;100032.75;5003702;28;20026;-66
2021/12/27 05:12:43;;;;;;;33.83;26.00;;;;;;;2.84;98.20;100017.38;4978532;28;20072;-66
2021/12/27 05:15:09;;;;;;;34.88;26.48;;;;;;;2.88;98.55;100013.72;4992907;28;20089;-66
2021/12/27 05:17:34;;;;;;;35.17;27.25;;;;;;;2.86;98.28;100010.41;4991849;28;20038;-66
2021/12/27 05:20:04;;;;;;;35.17;25.63;;;;;;;2.89;98.46;100005.13;5001535;28;20033;-66
2021/12/27 05:22:30;;;;;;;33.95;25.50;;;;;;;2.89;98.64;100010.22;4991598;28;20033;-66
2021/12/27 05:24:55;;;;;;;32.05;24.27;;;;;;;2.86;98.67;99995.88;4993238;28;20473;-67
2021/12/27 05:27:20;;;;;;;36.75;27.27;;;;;;;2.88;98.56;100003.47;4999400;28;20081;-67
2021/12/27 05:29:46;;;;;;;32.45;26.77;;;;;;;2.90;98.25;99991.38;4993043;28;20121;-66
2021/12/27 05:32:11;;;;;;;33.03;25.50;;;;;;;2.92;98.68;99997.22;5010609;28;20038;-67
2021/12/27 05:34:37;;;;;;;32.33;26.48;;;;;;;2.88;98.11;99993.22;5002127;28;20046;-66
2021/12/27 05:37:03;;;;;;;35.97;26.80;;;;;;;2.93;98.64;99998.88;4991961;28;20040;-67
2021/12/27 05:39:28;;;;;;;34.00;26.52;;;;;;;2.93;98.37;99997.16;4992355;28;20034;-66
2021/12/27 05:41:54;;;;;;;34.00;27.63;;;;;;;2.96;98.45;99991.00;5009555;28;20033;-66
2021/12/27 05:44:19;;;;;;;34.88;26.95;;;;;;;2.98;98.66;99999.38;4995999;28;20038;-66
2021/12/27 05:46:45;;;;;;;31.58;25.15;;;;;;;2.97;98.45;99997.75;4975286;28;20026;-66
2021/12/27 05:49:10;;;;;;;36.50;26.10;;;;;;;3.03;98.85;99993.97;5006280;28;20033;-66
2021/12/27 05:51:38;;;;;;;32.75;27.10;;;;;;;3.01;99.06;99991.53;5007938;28;20063;-66
2021/12/27 05:54:05;;;;;;;34.03;24.25;;;;;;;3.05;99.16;99995.53;5004491;28;20058;-67
2021/12/27 05:56:31;;;;;;;34.40;27.35;;;;;;;3.03;98.89;99984.56;4996278;28;20605;-69
2021/12/27 05:58:56;;;;;;;36.00;27.33;;;;;;;3.07;98.76;99990.31;4975008;28;20128;-67
2021/12/27 06:01:21;;;;;;;35.08;26.45;;;;;;;3.09;98.96;99991.84;4991008;28;20474;-67
2021/12/27 06:03:47;;;;;;;34.95;27.35;;;;;;;3.12;98.80;99991.66;5006067;28;20113;-67
2021/12/27 06:06:12;;;;;;;34.30;26.67;;;;;;;3.11;98.75;100007.16;4998751;28;20026;-67
2021/12/27 06:08:37;;;;;;;34.10;27.13;;;;;;;3.15;98.96;100004.28;4974355;28;20121;-67
2021/12/27 06:11:03;;;;;;;35.42;27.58;;;;;;;3.17;98.89;99997.31;5003032;28;20112;-66
2021/12/27 06:13:28;;;;;;;35.13;26.95;;;;;;;3.20;99.08;99994.53;4996053;28;20034;-67
2021/12/27 06:15:54;;;;;;;34.90;26.88;;;;;;;3.27;99.41;100004.41;4993033;28;20092;-66
2021/12/27 06:18:20;;;;;;;36.00;27.63;;;;;;;3.27;99.82;100006.97;4992158;28;20077;-66
2021/12/27 06:20:46;;;;;;;35.15;27.27;;;;;;;3.27;99.44;100000.13;5001934;28;20029;-67
2021/12/27 06:23:11;;;;;;;33.83;26.92;;;;;;;3.32;99.51;99997.25;5002060;28;20045;-67
2021/12/27 06:25:36;;;;;;;35.45;28.30;;;;;;;3.33;99.40;99996.34;4991918;28;20025;-66
2021/12/27 06:28:02;;;;;;;32.75;25.63;;;;;;;3.31;99.63;99993.03;4993573;28;20033;-67
2021/12/27 06:30:27;;;;;;;33.85;27.27;;;;;;;3.37;99.42;100005.44;4995148;28;20505;-66
2021/12/27 06:32:53;;;;;;;33.65;27.10;;;;;;;3.36;99.46;100003.81;4992076;28;20038;-66
2021/12/27 06:35:19;;;;;;;33.70;25.83;;;;;;;3.36;99.41;99998.69;4989875;28;20146;-66
2021/12/27 06:37:45;;;;;;;33.60;25.25;;;;;;;3.36;99.07;99993.56;4999496;28;20052;-66
2021/12/27 06:40:12;;;;;;;33.25;26.95;;;;;;;3.37;98.88;99996.03;4995144;28;20455;-66
2021/12/27 06:42:38;;;;;;;30.95;25.20;;;;;;;3.40;98.94;99995.00;4991489;28;20477;-67
2021/12/27 06:45:05;;;;;;;40.30;31.50;;;;;;;3.42;99.62;99973.47;4993447;28;20040;-66
2021/12/27 06:47:30;;;;;;;43.35;33.00;;;;;;;3.48;99.56;99982.50;5002876;28;20041;-66
2021/12/27 06:49:55;;;;;;;35.05;26.65;;;;;;;3.47;99.66;99991.13;4997423;28;20389;-66
2021/12/27 06:52:21;;;;;;;34.90;26.75;;;;;;;3.49;99.58;99979.00;4996855;28;20133;-66
2021/12/27 06:54:47;;;;;;;31.13;25.30;;;;;;;3.48;99.31;99977.38;4994182;28;20412;-66
2021/12/27 06:57:12;;;;;;;34.17;27.52;;;;;;;3.51;99.25;99971.25;4991592;28;20141;-66
2021/12/27 06:59:38;;;;;;;34.60;26.90;;;;;;;3.52;99.34;99968.56;4991552;28;20443;-66
2021/12/27 07:02:04;;;;;;;35.00;26.40;;;;;;;3.55;99.43;99973.47;5001519;28;20416;-66
2021/12/27 07:04:31;;;;;;;35.17;26.65;;;;;;;3.55;99.31;99970.91;4989934;28;20030;-66
2021/12/27 07:06:57;;;;;;;33.20;27.50;;;;;;;3.56;99.30;99970.03;4991021;28;20033;-66
2021/12/27 07:09:22;;;;;;;38.15;28.15;;;;;;;3.61;99.58;99967.97;4976511;28;20029;-67
2021/12/27 07:11:48;;;;;;;34.20;26.73;;;;;;;3.62;99.47;99973.94;4984944;28;20029;-66
2021/12/27 07:14:13;;;;;;;32.67;25.80;;;;;;;3.64;99.20;99962.63;5001124;28;20029;-67
2021/12/27 07:16:38;;;;;;;37.20;27.98;;;;;;;3.66;99.47;99963.34;4994082;28;20030;-66
2021/12/27 07:19:04;;;;;;;34.97;27.95;;;;;;;3.67;99.81;99962.44;4987400;28;20390;-66
2021/12/27 07:21:29;;;;;;;33.65;26.27;;;;;;;3.65;99.77;99950.63;4974272;28;20034;-67
2021/12/27 07:23:54;;;;;;;33.97;25.55;;;;;;;3.67;99.62;99957.31;4980351;28;20076;-66
2021/12/27 07:26:20;;;;;;;32.97;25.65;;;;;;;3.72;99.55;99955.22;4985847;28;20034;-66
2021/12/27 07:28:45;;;;;;;37.25;27.33;;;;;;;3.62;99.34;99931.16;4988433;28;20072;-66
2021/12/27 07:31:11;;;;;;;35.53;25.75;;;;;;;3.74;99.69;99947.47;4978049;28;20106;-66
2021/12/27 07:33:37;;;;;;;36.35;27.30;;;;;;;3.77;99.52;99951.53;4981277;28;20456;-66
2021/12/27 07:36:05;;;;;;;34.63;26.33;;;;;;;3.78;99.51;99948.06;4969560;28;20038;-67
2021/12/27 07:38:31;;;;;;;35.72;28.63;;;;;;;3.78;99.61;99948.06;4979511;28;20026;-66
2021/12/27 07:40:56;;;;;;;34.13;25.23;;;;;;;3.78;100.00;99938.63;4960571;28;20038;-67
2021/12/27 07:43:22;;;;;;;36.97;26.23;;;;;;;3.81;99.52;99953.00;4991063;28;20030;-66
2021/12/27 07:45:47;;;;;;;38.78;26.13;;;;;;;3.82;99.62;99954.63;4978570;28;20049;-67
2021/12/27 07:48:12;;;;;;;35.15;26.27;;;;;;;3.80;99.96;99952.16;4987971;28;20025;-68
2021/12/27 07:50:38;;;;;;;33.92;25.23;;;;;;;3.82;99.71;99957.19;4989813;28;20071;-66
2021/12/27 07:53:04;;;;;;;31.55;25.08;;;;;;;3.82;99.59;99950.31;4989525;28;20528;-67
2021/12/27 07:55:30;;;;;;;35.70;26.58;;;;;;;3.83;99.49;99956.25;4991048;28;20031;-67
2021/12/27 07:57:57;;;;;;;34.40;27.08;;;;;;;3.83;99.78;99956.25;4971336;28;20041;-67
2021/12/27 08:00:22;;;;;;;34.58;26.35;;;;;;;3.85;99.46;99944.19;4980719;28;20030;-67
2021/12/27 08:02:48;;;;;;;35.10;26.42;;;;;;;3.87;99.74;99965.41;4981702;28;20042;-67
2021/12/27 08:05:14;;;;;;;33.67;24.98;;;;;;;3.89;99.74;99964.34;4975051;28;20066;-66
2021/12/27 08:07:42;;;;;;;36.15;27.75;;;;;;;3.90;99.74;99967.75;4976344;28;20035;-67
2021/12/27 08:10:08;;;;;;;34.42;25.70;;;;;;;3.91;99.70;99969.41;4980361;28;20053;-66
2021/12/27 08:12:35;;;;;;;34.08;26.17;;;;;;;3.90;99.20;99967.75;4978696;28;20105;-67
2021/12/27 08:15:00;;;;;;;33.17;25.92;;;;;;;3.93;99.65;99962.41;4955436;28;20031;-67
2021/12/27 08:17:25;;;;;;;35.58;26.67;;;;;;;3.94;99.84;99961.50;4983246;28;20032;-67
2021/12/27 08:19:51;;;;;;;36.80;28.85;;;;;;;3.96;99.56;99977.63;4997352;28;20394;-66
2021/12/27 08:22:16;;;;;;;37.35;29.75;;;;;;;3.98;99.72;99968.06;4986067;28;20142;-67
2021/12/27 08:24:42;;;;;;;34.55;28.70;;;;;;;3.97;99.32;99966.44;4975992;28;20027;-66
2021/12/27 08:27:07;;;;;;;41.20;33.50;;;;;;;3.96;99.68;99967.34;4977184;28;20030;-66
2021/12/27 08:29:33;;;;;;;38.90;31.23;;;;;;;3.98;99.51;99974.00;4983696;28;20038;-67
2021/12/27 08:31:58;;;;;;;37.10;28.60;;;;;;;4.01;99.48;99970.41;4981695;28;20035;-67
2021/12/27 08:34:24;;;;;;;34.08;25.75;;;;;;;4.03;99.17;99971.13;4984664;28;20033;-66
2021/12/27 08:36:49;;;;;;;33.22;25.58;;;;;;;4.03;99.68;99966.00;4977717;28;20110;-67
2021/12/27 08:39:15;;;;;;;32.35;24.10;;;;;;;4.06;99.64;99963.22;4977551;28;20030;-67
2021/12/27 08:41:41;;;;;;;27.80;23.25;;;;;;;4.05;99.69;99961.59;4992457;28;20426;-67
2021/12/27 08:44:06;;;;;;;30.20;24.40;;;;;;;4.07;99.09;99959.75;4996326;28;20534;-67
2021/12/27 08:46:33;;;;;;;27.83;24.02;;;;;;;4.06;99.43;99958.09;4973916;28;20116;-66
2021/12/27 08:48:58;;;;;;;28.88;23.95;;;;;;;4.06;99.49;99952.13;4997992;28;20506;-66
2021/12/27 08:51:23;;;;;;;28.48;24.60;;;;;;;4.07;99.25;99949.50;5002703;28;20171;-66
2021/12/27 08:53:49;;;;;;;29.75;24.65;;;;;;;4.12;99.47;99941.44;4990875;28;20065;-68
2021/12/27 08:56:15;;;;;;;30.20;24.73;;;;;;;4.14;99.37;99945.56;4981634;28;20026;-67
2021/12/27 08:58:40;;;;;;;30.10;23.95;;;;;;;4.16;99.48;99938.56;4979823;28;20074;-67
2021/12/27 09:01:06;;;;;;;30.88;23.65;;;;;;;4.18;99.34;99936.72;4988289;28;20466;-66
2021/12/27 09:03:32;;;;;;;29.08;25.25;;;;;;;4.17;99.35;99929.94;4980906;28;20094;-67
2021/12/27 09:05:57;;;;;;;29.30;23.83;;;;;;;4.18;99.08;99916.19;4990495;28;20056;-67
2021/12/27 09:08:23;;;;;;;28.90;21.95;;;;;;;4.20;99.01;99919.47;5001565;28;20528;-67
2021/12/27 09:10:48;;;;;;;27.73;22.65;;;;;;;4.20;99.10;99914.34;4972202;28;20460;-66
2021/12/27 09:13:14;;;;;;;27.40;22.35;;;;;;;4.21;98.72;99913.41;4977265;28;20035;-67
2021/12/27 09:15:39;;;;;;;28.60;22.48;;;;;;;4.22;98.78;99907.34;4979639;28;20034;-67
2021/12/27 09:18:04;;;;;;;26.30;21.85;;;;;;;4.22;99.05;99907.34;4975650;28;20426;-66
2021/12/27 09:20:30;;;;;;;26.67;21.92;;;;;;;4.25;98.92;99916.59;4960498;28;20031;-67
2021/12/27 09:22:55;;;;;;;27.50;22.73;;;;;;;4.28;99.27;99915.56;4985046;28;20386;-67
2021/12/27 09:25:21;;;;;;;27.60;24.08;;;;;;;4.22;98.36;99927.88;4977543;28;20117;-66
2021/12/27 09:27:47;;;;;;;27.98;23.58;;;;;;;4.26;98.41;99926.75;4987006;28;20492;-67
2021/12/27 09:30:13;;;;;;;28.02;23.30;;;;;;;4.25;98.39;99937.13;4996797;28;20040;-67
2021/12/27 09:32:38;;;;;;;28.35;23.55;;;;;;;4.23;98.27;99939.78;4993007;28;20061;-65
2021/12/27 09:35:06;;;;;;;26.10;22.42;;;;;;;4.23;98.31;99944.91;4989197;28;20108;-65
2021/12/27 09:37:31;;;;;;;29.02;21.92;;;;;;;4.23;98.16;99944.91;5007677;28;20459;-65
2021/12/27 09:39:58;;;;;;;26.52;23.33;;;;;;;4.25;98.16;99948.22;4992422;28;20030;-65
2021/12/27 09:42:25;;;;;;;27.30;23.90;;;;;;;4.25;98.02;99932.81;4967469;28;20071;-65
2021/12/27 09:44:53;;;;;;;29.85;24.02;;;;;;;4.36;98.33;99933.78;4994332;28;20031;-67
2021/12/27 09:47:19;;;;;;;29.40;22.30;;;;;;;4.38;98.50;99937.91;4992456;28;20495;-66
2021/12/27 09:49:46;;;;;;;25.38;21.38;;;;;;;4.42;98.18;99925.69;4971981;28;20050;-65
2021/12/27 09:52:11;;;;;;;23.98;21.10;;;;;;;4.41;97.76;99918.88;5002823;28;20537;-65
2021/12/27 09:54:38;;;;;;;23.95;20.33;;;;;;;4.46;97.93;99922.78;4991112;28;20129;-66
2021/12/27 09:57:04;;;;;;;23.85;19.67;;;;;;;4.48;98.00;99922.69;4992460;28;20073;-66
2021/12/27 09:59:29;;;;;;;23.20;19.30;;;;;;;4.52;97.73;99913.81;4975189;28;20093;-67
2021/12/27 10:01:55;;;;;;;22.75;20.35;;;;;;;4.53;97.66;99916.28;4974172;28;20479;-66
2021/12/27 10:04:21;;;;;;;21.98;19.67;;;;;;;4.57;97.66;99910.94;4991556;28;20030;-67
2021/12/27 10:06:47;;;;;;;21.17;19.00;;;;;;;4.58;97.39;99913.38;4974625;28;20036;-66
2021/12/27 10:09:13;;;;;;;22.95;19.77;;;;;;;4.55;97.31;99911.03;4991751;28;20240;-65
2021/12/27 10:11:42;;;;;;;22.98;19.67;;;;;;;4.55;97.31;99898.19;4991832;28;20030;-64
2021/12/27 10:14:14;;;;;;;22.98;20.58;;;;;;;4.59;96.83;99893.66;4993750;28;20091;-67
2021/12/27 10:16:45;;;;;;;23.58;21.08;;;;;;;4.59;96.57;99884.22;4995222;28;20109;-66
2021/12/27 10:19:11;;;;;;;25.23;22.52;;;;;;;4.57;96.80;99865.53;4977488;28;20110;-65
2021/12/27 10:21:41;;;;;;;24.60;21.80;;;;;;;4.59;96.83;99862.84;4994151;28;20067;-66
2021/12/27 10:24:18;;;;;;;26.10;23.23;;;;;;;4.60;96.69;99860.19;4995828;28;20089;-67
2021/12/27 10:26:46;;;;;;;26.45;23.55;;;;;;;4.57;96.80;99854.44;4991342;28;20094;-66
2021/12/27 10:29:14;;;;;;;27.25;24.42;;;;;;;4.56;96.52;99863.88;4998871;28;20019;-69
2021/12/27 10:31:54;;;;;;;27.40;24.02;;;;;;;4.59;96.42;99868.81;4978232;28;20113;-72
2021/12/27 10:34:20;;;;;;;28.02;24.35;;;;;;;4.53;96.34;99870.06;4982384;28;20053;-69
2021/12/27 10:37:06;;;;;;;29.67;26.08;;;;;;;4.60;96.21;99880.72;4974910;28;20030;-69
2021/12/27 10:39:42;;;;;;;36.95;28.55;;;;;;;4.60;96.52;99880.72;4988195;28;20026;-67
2021/12/27 10:42:09;;;;;;;37.25;29.77;;;;;;;4.56;96.20;99876.72;4986717;28;20018;-67
2021/12/27 10:44:36;;;;;;;36.10;30.13;;;;;;;4.61;96.41;99882.34;4979510;28;20038;-67
2021/12/27 10:47:35;;;;;;;34.30;30.08;;;;;;;4.62;96.69;99872.91;4979515;28;20022;-67
2021/12/27 10:50:08;;;;;;;;;;;;;;;4.75;96.25;99874.47;4954874;28;20057;-68
2021/12/27 10:53:04;;;;;;;29.80;26.17;;;;;;;4.74;96.24;99867.69;4990321;28;20292;-67
2021/12/27 10:55:42;;;;;;;28.30;25.13;;;;;;;4.79;96.57;99875.88;4980884;28;20026;-67
2021/12/27 10:58:13;;;;;;;29.90;23.98;;;;;;;4.84;96.39;99878.13;4979019;28;20077;-67
2021/12/27 11:00:39;;;;;;;27.73;24.50;;;;;;;4.85;96.15;99868.66;4981029;28;20022;-67
2021/12/27 11:03:05;;;;;;;26.52;23.60;;;;;;;4.90;96.16;99866.56;4978874;28;20073;-67
2021/12/27 11:05:33;;;;;;;25.48;22.75;;;;;;;4.94;96.34;99868.00;4973357;28;20473;-67
2021/12/27 11:08:04;;;;;;;25.52;22.70;;;;;;;4.97;96.28;99862.63;4974905;28;20113;-66
2021/12/27 11:10:34;;;;;;;26.25;23.45;;;;;;;5.05;96.36;99856.00;4961672;28;20120;-67
2021/12/27 11:12:59;;;;;;;26.63;22.77;;;;;;;5.10;96.69;99853.06;4989050;28;20041;-67
2021/12/27 11:15:36;;;;;;;24.80;22.20;;;;;;;5.17;96.01;99859.41;4990920;28;20026;-67
2021/12/27 11:18:03;;;;;;;24.83;22.05;;;;;;;5.17;95.97;99856.84;4988554;28;20038;-67
2021/12/27 11:20:29;;;;;;;23.63;19.63;;;;;;;5.21;96.45;99842.81;4992369;28;20133;-67
2021/12/27 11:22:58;;;;;;;23.23;20.90;;;;;;;5.24;96.04;99855.44;4989044;28;20475;-67
2021/12/27 11:25:44;;;;;;;28.77;25.40;;;;;;;5.32;95.70;99853.09;4988126;28;20132;-67